Time;durP1;ratioP1;P1;durP2;ratioP2;P2;SDS_P1;SDS_P2;PMS_P1;PMS_P2;Temp;Humidity;BMP_temperature;BMP_pressure;BME280_temperature;BME280_humidity;BME280_pressure;Samples;Min_cycle;Max_cycle;Signal;HPM_P1;HPM_P2
2021/03/05 00:01:38;;;;;;;5.85;1.25;;;20.10;48.30;;;;;;6198646;28;20041;-70
2021/03/05 00:04:38;;;;;;;1.48;0.90;;;20.10;48.30;;;;;;6198291;28;20026;-70
2021/03/05 00:07:39;;;;;;;1.15;1.00;;;20.10;48.30;;;;;;6198132;28;20088;-70
2021/03/05 00:10:41;;;;;;;1.10;0.80;;;20.10;48.30;;;;;;6197901;28;20034;-70
2021/03/05 00:13:42;;;;;;;1.42;1.10;;;20.10;48.30;;;;;;6198250;28;20030;-70
2021/03/05 00:16:42;;;;;;;0.82;0.77;;;20.10;48.30;;;;;;6197941;28;20058;-70
2021/03/05 00:19:43;;;;;;;2.00;0.90;;;20.10;48.30;;;;;;6198332;28;20121;-70
2021/03/05 00:22:44;;;;;;;1.25;0.80;;;20.10;48.30;;;;;;6197420;28;20061;-70
2021/03/05 00:25:44;;;;;;;2.05;1.20;;;20.10;48.30;;;;;;6197765;28;20039;-70
2021/03/05 00:28:45;;;;;;;2.13;1.17;;;20.10;48.30;;;;;;6197828;28;20045;-70
2021/03/05 00:31:45;;;;;;;1.17;0.98;;;20.10;48.30;;;;;;6197812;28;20493;-70
2021/03/05 00:34:46;;;;;;;1.48;0.90;;;20.10;48.40;;;;;;6197430;28;20053;-70
2021/03/05 00:37:47;;;;;;;1.38;0.90;;;20.10;48.30;;;;;;6197452;28;20026;-70
2021/03/05 00:40:48;;;;;;;1.10;0.82;;;20.10;48.30;;;;;;6197629;28;20146;-70
2021/03/05 00:43:48;;;;;;;1.15;0.80;;;20.10;48.20;;;;;;6197465;28;20023;-70
2021/03/05 00:46:49;;;;;;;1.33;1.00;;;20.10;48.30;;;;;;6197126;28;20085;-70
2021/03/05 00:49:49;;;;;;;3.38;1.75;;;20.10;48.30;;;;;;6195925;28;20070;-70
2021/03/05 00:52:51;;;;;;;1.20;0.88;;;20.10;48.30;;;;;;6196379;28;20026;-70
2021/03/05 00:55:51;;;;;;;1.63;1.10;;;20.10;48.30;;;;;;6196501;28;20054;-70
2021/03/05 00:58:52;;;;;;;0.90;0.70;;;20.10;48.30;;;;;;6195639;28;20031;-70
2021/03/05 01:01:52;;;;;;;2.15;1.10;;;20.10;48.20;;;;;;6196046;28;20070;-70
2021/03/05 01:04:53;;;;;;;1.00;0.80;;;20.10;48.20;;;;;;6195938;28;20034;-70
2021/03/05 01:07:53;;;;;;;1.48;0.90;;;20.10;48.30;;;;;;6195187;28;20089;-70
2021/03/05 01:10:54;;;;;;;1.35;0.88;;;20.10;48.30;;;;;;6195103;28;20041;-70
2021/03/05 01:13:54;;;;;;;1.25;0.85;;;20.10;48.30;;;;;;6195588;28;20039;-70
2021/03/05 01:16:55;;;;;;;1.10;0.82;;;20.10;48.30;;;;;;6195376;28;20081;-70
2021/03/05 01:19:56;;;;;;;1.35;0.88;;;20.10;48.20;;;;;;6193720;28;20058;-70
2021/03/05 01:22:56;;;;;;;1.38;1.00;;;20.10;48.20;;;;;;6195910;28;20026;-70
2021/03/05 01:25:57;;;;;;;1.20;0.80;;;20.10;48.20;;;;;;6196083;28;20556;-70
2021/03/05 01:28:58;;;;;;;1.77;1.17;;;20.10;48.20;;;;;;6196201;28;20037;-70
2021/03/05 01:31:59;;;;;;;1.67;0.80;;;20.10;48.20;;;;;;6196200;28;20030;-70
2021/03/05 01:35:00;;;;;;;2.05;1.00;;;20.10;48.30;;;;;;6195713;28;20034;-69
2021/03/05 01:38:00;;;;;;;1.75;0.98;;;20.10;48.20;;;;;;6194839;28;20029;-70
2021/03/05 01:41:01;;;;;;;1.83;1.20;;;20.10;48.10;;;;;;6195574;28;20035;-70
2021/03/05 01:44:04;;;;;;;1.20;0.90;;;20.10;48.20;;;;;;6195840;28;20113;-70
2021/03/05 01:47:04;;;;;;;1.73;1.02;;;20.10;48.20;;;;;;6196028;28;20031;-70
2021/03/05 01:50:13;;;;;;;2.03;1.10;;;20.10;48.20;;;;;;6196086;28;20038;-70
2021/03/05 01:53:14;;;;;;;1.60;0.93;;;20.10;48.20;;;;;;6195744;28;20034;-70
2021/03/05 01:56:38;;;;;;;1.35;1.02;;;20.10;48.10;;;;;;6195585;28;20343;-70
2021/03/05 01:59:40;;;;;;;1.77;1.10;;;20.10;48.10;;;;;;6195430;28;20105;-70
2021/03/05 02:02:40;;;;;;;2.00;1.30;;;20.10;48.10;;;;;;6195524;28;20485;-70
2021/03/05 02:05:41;;;;;;;2.03;1.10;;;20.10;48.10;;;;;;6194980;28;20034;-70
2021/03/05 02:08:42;;;;;;;2.10;1.20;;;20.10;48.10;;;;;;6195128;28;20102;-70
2021/03/05 02:11:42;;;;;;;1.77;1.20;;;20.10;48.20;;;;;;6195623;28;20117;-70
2021/03/05 02:14:43;;;;;;;3.67;1.30;;;20.10;48.00;;;;;;6195636;28;20362;-70
2021/03/05 02:18:20;;;;;;;2.53;1.38;;;20.10;48.10;;;;;;6194823;28;20092;-70
2021/03/05 02:21:50;;;;;;;2.42;1.20;;;20.00;48.10;;;;;;6195074;28;20440;-70
2021/03/05 02:25:09;;;;;;;2.38;1.38;;;20.10;48.10;;;;;;6139142;28;20097;-70
2021/03/05 02:28:49;;;;;;;3.83;1.42;;;20.00;48.10;;;;;;6171683;28;20032;-70
2021/03/05 02:32:09;;;;;;;1.60;1.13;;;20.00;48.00;;;;;;6194662;28;20023;-70
2021/03/05 02:35:11;;;;;;;2.55;1.23;;;20.00;48.10;;;;;;6194814;28;20500;-70
2021/03/05 02:38:14;;;;;;;2.55;1.40;;;20.00;48.00;;;;;;6195063;28;20122;-70
2021/03/05 02:41:17;;;;;;;1.92;1.20;;;20.00;48.00;;;;;;6195341;28;20464;-70
2021/03/05 02:44:27;;;;;;;2.28;1.42;;;20.00;48.10;;;;;;6195767;28;20705;-70
2021/03/05 02:47:31;;;;;;;2.85;1.30;;;20.00;48.00;;;;;;6195624;28;20043;-70
2021/03/05 02:50:33;;;;;;;2.70;1.40;;;20.00;48.00;;;;;;6195714;28;20026;-70
2021/03/05 02:53:36;;;;;;;2.17;1.30;;;20.00;48.00;;;;;;6195659;28;20472;-69
2021/03/05 02:56:38;;;;;;;2.28;1.30;;;20.00;48.00;;;;;;6195633;28;20025;-70
2021/03/05 02:59:41;;;;;;;2.78;1.10;;;20.00;48.00;;;;;;6195687;28;20041;-70
2021/03/05 03:02:42;;;;;;;3.35;1.23;;;20.00;48.00;;;;;;6195610;28;20026;-70
2021/03/05 03:05:43;;;;;;;2.60;1.58;;;20.00;48.00;;;;;;6195572;28;20030;-70
2021/03/05 03:08:45;;;;;;;1.95;1.23;;;20.00;48.00;;;;;;6195499;28;20030;-70
2021/03/05 03:11:45;;;;;;;2.50;1.23;;;20.00;48.00;;;;;;6195523;28;20033;-70
2021/03/05 03:14:47;;;;;;;2.13;1.50;;;20.10;48.10;;;;;;6195599;28;20109;-70
2021/03/05 03:17:49;;;;;;;3.28;1.30;;;20.00;48.00;;;;;;6195345;28;20061;-70
2021/03/05 03:20:49;;;;;;;2.15;1.35;;;20.00;48.00;;;;;;6195574;28;20029;-70
2021/03/05 03:23:50;;;;;;;2.03;1.30;;;20.00;48.00;;;;;;6193994;28;20030;-70
2021/03/05 03:26:51;;;;;;;2.75;1.50;;;20.00;48.00;;;;;;6195466;28;20043;-69
2021/03/05 03:29:52;;;;;;;2.28;1.17;;;20.00;48.00;;;;;;6195392;28;20022;-70
2021/03/05 03:32:53;;;;;;;2.00;1.20;;;20.00;48.70;;;;;;6194033;28;20170;-69
2021/03/05 03:35:54;;;;;;;2.13;1.17;;;20.00;48.00;;;;;;6195360;28;20018;-70
2021/03/05 03:38:55;;;;;;;2.30;1.48;;;20.00;48.00;;;;;;6195193;28;20027;-70
2021/03/05 03:41:57;;;;;;;2.55;1.27;;;20.00;48.00;;;;;;6191385;28;20034;-70
2021/03/05 03:44:58;;;;;;;2.80;1.40;;;20.00;48.00;;;;;;6195282;28;20030;-70
2021/03/05 03:48:01;;;;;;;2.45;1.45;;;20.00;48.00;;;;;;6199484;28;20038;-70
2021/03/05 03:51:04;;;;;;;2.25;1.20;;;20.00;48.00;;;;;;6199425;28;20097;-70
2021/03/05 03:54:06;;;;;;;2.58;1.30;;;20.00;48.00;;;;;;6199524;28;20030;-70
2021/03/05 03:57:11;;;;;;;2.92;1.40;;;20.00;48.00;;;;;;6199415;28;20038;-70
2021/03/05 04:00:13;;;;;;;2.40;1.35;;;20.00;48.00;;;;;;6199487;28;20018;-70
2021/03/05 04:03:17;;;;;;;4.25;1.65;;;20.00;48.00;;;;;;6199324;28;20476;-70
2021/03/05 04:06:24;;;;;;;2.72;1.50;;;20.00;48.00;;;;;;6198934;28;20041;-70
2021/03/05 04:09:25;;;;;;;1.92;1.30;;;20.00;48.00;;;;;;6197728;28;20023;-70
2021/03/05 04:12:27;;;;;;;1.65;1.10;;;20.00;48.00;;;;;;6199200;28;20060;-70
2021/03/05 04:15:28;;;;;;;2.47;1.45;;;20.00;48.00;;;;;;6198840;28;20023;-70
2021/03/05 04:18:33;;;;;;;2.15;1.15;;;20.00;47.90;;;;;;6198938;28;20023;-70
2021/03/05 04:21:37;;;;;;;2.30;1.42;;;20.00;48.00;;;;;;6199089;28;20441;-69
2021/03/05 04:24:38;;;;;;;3.22;1.30;;;20.00;48.00;;;;;;6198696;28;20034;-70
2021/03/05 04:27:39;;;;;;;2.45;1.25;;;20.00;47.90;;;;;;6198820;28;20092;-71
2021/03/05 04:30:39;;;;;;;2.53;1.33;;;20.00;48.00;;;;;;6197949;28;20027;-70
2021/03/05 04:33:40;;;;;;;3.00;1.33;;;20.00;48.00;;;;;;6176038;28;20031;-70
2021/03/05 04:36:40;;;;;;;2.40;1.23;;;20.00;48.00;;;;;;6175304;28;20054;-70
2021/03/05 04:39:41;;;;;;;3.22;1.30;;;20.00;47.90;;;;;;6178067;28;20420;-70
2021/03/05 04:42:41;;;;;;;2.05;1.17;;;20.00;47.90;;;;;;6198500;28;20504;-70
2021/03/05 04:45:42;;;;;;;2.70;1.30;;;20.00;48.00;;;;;;6198046;28;20081;-70
2021/03/05 04:48:42;;;;;;;2.72;1.33;;;20.00;48.00;;;;;;6189966;28;20134;-70
2021/03/05 04:51:43;;;;;;;2.50;1.25;;;20.00;48.00;;;;;;6192642;28;20109;-70
2021/03/05 04:54:44;;;;;;;1.70;1.00;;;20.00;48.00;;;;;;6197967;28;20037;-68
2021/03/05 04:57:44;;;;;;;1.40;0.90;;;20.00;48.00;;;;;;6198069;28;20093;-70
2021/03/05 05:00:45;;;;;;;3.33;1.40;;;20.00;47.90;;;;;;6197607;28;20027;-70
2021/03/05 05:03:45;;;;;;;2.15;1.20;;;20.00;47.90;;;;;;6197883;28;20034;-70
2021/03/05 05:06:46;;;;;;;2.42;1.17;;;20.00;47.90;;;;;;6197593;28;20042;-69
2021/03/05 05:09:46;;;;;;;2.53;1.20;;;20.00;47.90;;;;;;6197593;28;20121;-70
2021/03/05 05:12:47;;;;;;;1.58;0.88;;;20.00;47.90;;;;;;6197793;28;20031;-70
2021/03/05 05:15:47;;;;;;;2.30;1.10;;;20.00;47.90;;;;;;6197177;28;20048;-70
2021/03/05 05:18:48;;;;;;;1.65;0.90;;;20.00;47.80;;;;;;6197388;28;20041;-70
2021/03/05 05:21:48;;;;;;;1.85;1.10;;;20.00;47.80;;;;;;6197313;28;20377;-70
2021/03/05 05:24:49;;;;;;;1.88;0.90;;;20.00;47.90;;;;;;6172938;28;20027;-70
2021/03/05 05:27:49;;;;;;;1.60;0.75;;;20.00;47.80;;;;;;6194873;28;20505;-70
2021/03/05 05:30:50;;;;;;;1.27;0.88;;;20.00;47.80;;;;;;6197125;28;20061;-70
2021/03/05 05:33:50;;;;;;;1.75;1.00;;;20.00;47.80;;;;;;6197284;28;20634;-70
2021/03/05 05:36:51;;;;;;;1.45;0.80;;;20.00;47.80;;;;;;6184799;28;20038;-70
2021/03/05 05:39:51;;;;;;;1.45;0.90;;;20.00;47.80;;;;;;6149001;28;20127;-70
2021/03/05 05:42:52;;;;;;;1.02;0.73;;;20.00;47.80;;;;;;6189254;28;20098;-70
2021/03/05 05:45:52;;;;;;;1.70;0.88;;;20.00;47.80;;;;;;6196881;28;20121;-70
2021/03/05 05:48:53;;;;;;;1.60;0.90;;;20.00;47.70;;;;;;6196949;28;20035;-70
2021/03/05 05:51:57;;;;;;;1.75;0.98;;;20.00;47.70;;;;;;6196749;28;20029;-70
2021/03/05 05:55:00;;;;;;;1.25;0.80;;;20.00;47.60;;;;;;6167900;28;20151;-70
2021/03/05 05:58:00;;;;;;;1.42;0.90;;;20.00;47.70;;;;;;6187142;28;20034;-70
2021/03/05 06:01:01;;;;;;;0.95;0.70;;;20.00;47.70;;;;;;6196527;28;20724;-70
2021/03/05 06:04:03;;;;;;;1.73;1.00;;;20.00;47.70;;;;;;6177173;28;20031;-70
2021/03/05 06:07:03;;;;;;;0.90;0.70;;;20.00;47.70;;;;;;6168926;28;20040;-70
2021/03/05 06:10:05;;;;;;;2.63;0.80;;;20.00;47.60;;;;;;6196188;28;20027;-69
2021/03/05 06:13:05;;;;;;;1.10;0.90;;;20.00;47.60;;;;;;6196243;28;20372;-70
2021/03/05 06:16:19;;;;;;;1.40;0.90;;;20.00;47.60;;;;;;6196121;28;20058;-70
2021/03/05 06:19:21;;;;;;;2.20;0.90;;;20.00;47.60;;;;;;6191670;28;20023;-70
2021/03/05 06:22:23;;;;;;;1.20;0.90;;;20.00;47.60;;;;;;6182836;28;20038;-70
2021/03/05 06:25:35;;;;;;;1.90;0.88;;;20.00;47.70;;;;;;6196175;28;20370;-70
2021/03/05 06:28:35;;;;;;;1.02;0.73;;;20.00;47.70;;;;;;6195985;28;20045;-70
2021/03/05 06:31:35;;;;;;;0.98;0.80;;;20.00;47.70;;;;;;6195938;28;20034;-70
2021/03/05 06:34:53;;;;;;;1.58;0.90;;;20.00;47.60;;;;;;6175075;28;20396;-70
2021/03/05 06:37:53;;;;;;;0.93;0.63;;;20.00;47.70;;;;;;6170452;28;20026;-70
2021/03/05 06:41:16;;;;;;;2.42;0.70;;;20.00;47.70;;;;;;6175522;28;20025;-70
2021/03/05 06:44:22;;;;;;;1.20;0.70;;;20.00;47.70;;;;;;6189640;28;20022;-70
2021/03/05 06:47:26;;;;;;;1.23;0.85;;;20.10;47.80;;;;;;6193512;28;20058;-70
2021/03/05 06:50:27;;;;;;;2.50;0.73;;;20.10;47.80;;;;;;6185868;28;20026;-70
2021/03/05 06:53:27;;;;;;;1.02;0.60;;;20.10;47.80;;;;;;6189351;28;20084;-70
2021/03/05 06:56:30;;;;;;;1.30;0.73;;;20.10;47.80;;;;;;6192503;28;20102;-69
2021/03/05 06:59:42;;;;;;;1.05;0.70;;;20.10;47.80;;;;;;6184894;28;20041;-70
2021/03/05 07:02:43;;;;;;;1.27;0.82;;;20.10;47.90;;;;;;6167715;28;20317;-70
2021/03/05 07:05:48;;;;;;;1.08;0.70;;;20.10;47.80;;;;;;6180459;28;20022;-70
2021/03/05 07:08:49;;;;;;;1.45;0.80;;;20.10;47.90;;;;;;6175823;28;20022;-70
2021/03/05 07:11:51;;;;;;;0.93;0.50;;;20.10;47.90;;;;;;6171159;28;20478;-70
2021/03/05 07:15:05;;;;;;;2.58;0.73;;;20.10;47.90;;;;;;6177627;28;20402;-70
2021/03/05 07:18:06;;;;;;;1.90;0.88;;;20.10;48.00;;;;;;6184338;28;20412;-71
2021/03/05 07:21:08;;;;;;;1.67;0.90;;;20.10;47.90;;;;;;6189082;28;20051;-70
2021/03/05 07:24:11;;;;;;;0.82;0.45;;;20.10;48.00;;;;;;6176139;28;20085;-70
2021/03/05 07:27:11;;;;;;;0.75;0.50;;;20.10;47.90;;;;;;6190168;28;20034;-70
2021/03/05 07:30:13;;;;;;;1.38;0.75;;;20.10;48.00;;;;;;6180942;28;20122;-70
2021/03/05 07:33:16;;;;;;;0.82;0.70;;;20.10;48.00;;;;;;6197468;28;20026;-70
2021/03/05 07:36:18;;;;;;;1.45;0.80;;;20.10;48.00;;;;;;6197562;28;20130;-70
2021/03/05 07:39:35;;;;;;;1.38;0.70;;;20.10;48.00;;;;;;6188232;28;20527;-70
2021/03/05 07:42:37;;;;;;;1.10;0.63;;;20.10;48.00;;;;;;6197589;28;20026;-70
2021/03/05 07:45:38;;;;;;;1.55;0.82;;;20.10;48.00;;;;;;6195750;28;20493;-70
2021/03/05 07:48:39;;;;;;;0.75;0.63;;;20.10;48.00;;;;;;6197981;28;20027;-70
2021/03/05 07:51:41;;;;;;;0.98;0.80;;;20.10;48.00;;;;;;6197673;28;20432;-70
2021/03/05 07:54:48;;;;;;;0.90;0.60;;;20.10;48.10;;;;;;6197357;28;20130;-70
2021/03/05 07:57:48;;;;;;;2.05;0.75;;;20.10;48.00;;;;;;6192815;28;20068;-70
2021/03/05 08:00:50;;;;;;;1.95;0.90;;;20.10;48.10;;;;;;6197031;28;20030;-70
2021/03/05 08:03:53;;;;;;;1.23;0.90;;;20.10;48.10;;;;;;6197260;28;20456;-70
2021/03/05 08:07:12;;;;;;;2.25;1.33;;;19.90;48.00;;;;;;6193261;28;20042;-70
2021/03/05 08:10:51;;;;;;;2.72;1.52;;;19.80;47.20;;;;;;6193135;28;20093;-70
2021/03/05 08:13:52;;;;;;;3.47;1.70;;;19.70;46.20;;;;;;6193976;28;20535;-70
2021/03/05 08:16:53;;;;;;;5.28;2.40;;;19.60;45.50;;;;;;6191922;28;20051;-70
2021/03/05 08:19:53;;;;;;;6.13;2.35;;;19.60;44.60;;;;;;6183383;28;20030;-70
2021/03/05 08:23:01;;;;;;;5.32;2.45;;;19.50;43.40;;;;;;6195550;28;20038;-70
2021/03/05 08:26:02;;;;;;;12.30;2.67;;;19.50;42.10;;;;;;6196151;28;20177;-69
2021/03/05 08:29:02;;;;;;;13.40;3.15;;;19.50;41.10;;;;;;6192985;28;20038;-69
2021/03/05 08:32:03;;;;;;;13.00;2.55;;;19.60;41.00;;;;;;6195975;28;20030;-70
2021/03/05 08:35:08;;;;;;;9.15;2.33;;;19.60;41.30;;;;;;6186338;28;20109;-70
2021/03/05 08:38:19;;;;;;;9.25;2.38;;;19.70;41.20;;;;;;6173269;28;20050;-69
2021/03/05 08:41:25;;;;;;;4.93;1.98;;;19.70;41.20;;;;;;6158235;28;20030;-69
2021/03/05 08:44:25;;;;;;;8.68;2.13;;;19.70;41.80;;;;;;6156858;28;20120;-70
2021/03/05 08:47:26;;;;;;;7.10;2.30;;;19.70;41.90;;;;;;6194976;28;20042;-70
2021/03/05 08:50:32;;;;;;;9.57;2.78;;;19.80;41.80;;;;;;6198212;28;20473;-70
2021/03/05 08:53:41;;;;;;;5.75;1.98;;;19.80;42.00;;;;;;6198630;28;20034;-70
2021/03/05 08:56:42;;;;;;;7.28;2.20;;;19.80;42.30;;;;;;6178778;28;20031;-69
2021/03/05 08:59:43;;;;;;;7.60;2.00;;;19.80;42.40;;;;;;6152329;28;20118;-69
2021/03/05 09:02:45;;;;;;;4.68;1.92;;;19.80;42.60;;;;;;6198157;28;20034;-70
2021/03/05 09:05:47;;;;;;;6.60;1.90;;;19.80;42.70;;;;;;6197720;28;20030;-69
2021/03/05 09:08:48;;;;;;;4.90;2.20;;;19.80;42.90;;;;;;6197920;28;20041;-70
2021/03/05 09:12:11;;;;;;;9.18;2.03;;;19.80;43.00;;;;;;6197757;28;20027;-70
2021/03/05 09:15:12;;;;;;;7.07;1.85;;;19.80;43.20;;;;;;6197452;28;20470;-69
2021/03/05 09:18:16;;;;;;;4.32;1.92;;;19.80;43.30;;;;;;6197823;28;20114;-69
2021/03/05 09:21:17;;;;;;;3.38;2.03;;;19.80;43.30;;;;;;6197756;28;20038;-69
2021/03/05 09:24:17;;;;;;;3.90;1.70;;;19.80;43.40;;;;;;6197619;28;20030;-69
2021/03/05 09:27:24;;;;;;;5.82;2.08;;;19.80;43.50;;;;;;6184633;28;20118;-70
2021/03/05 09:30:25;;;;;;;4.05;1.77;;;19.90;43.70;;;;;;6153803;28;20031;-69
2021/03/05 09:33:34;;;;;;;4.28;1.80;;;19.90;43.80;;;;;;6197489;28;20026;-69
2021/03/05 09:36:35;;;;;;;3.15;1.85;;;19.90;43.90;;;;;;6196646;28;20429;-69
2021/03/05 09:39:35;;;;;;;4.07;1.65;;;19.90;44.00;;;;;;6197813;28;20035;-70
2021/03/05 09:43:02;;;;;;;4.28;1.88;;;19.90;44.00;;;;;;6196997;28;20057;-69
2021/03/05 09:46:23;;;;;;;3.83;1.50;;;19.90;44.10;;;;;;6194921;28;20046;-69
2021/03/05 09:49:26;;;;;;;2.97;1.65;;;19.90;44.20;;;;;;6178145;28;20051;-69
2021/03/05 09:52:26;;;;;;;3.45;1.70;;;19.90;44.20;;;;;;6171002;28;20034;-69
2021/03/05 09:55:28;;;;;;;2.92;1.45;;;19.90;44.30;;;;;;6148948;28;20024;-70
2021/03/05 09:58:29;;;;;;;2.40;1.27;;;19.90;44.30;;;;;;6195874;28;20027;-70
2021/03/05 10:01:34;;;;;;;3.28;1.30;;;19.90;44.40;;;;;;6196674;28;20440;-69
2021/03/05 10:04:45;;;;;;;2.85;1.50;;;19.90;44.40;;;;;;6194225;28;20110;-70
2021/03/05 10:07:45;;;;;;;1.92;1.27;;;19.90;44.60;;;;;;6196597;28;20456;-70
2021/03/05 10:11:01;;;;;;;1.88;1.30;;;19.90;44.60;;;;;;6196740;28;20026;-70
2021/03/05 10:14:03;;;;;;;2.97;1.70;;;19.90;44.70;;;;;;6196571;28;20125;-70
2021/03/05 10:17:15;;;;;;;3.35;1.30;;;19.90;44.80;;;;;;6196381;28;20097;-70
2021/03/05 10:20:16;;;;;;;2.10;1.30;;;19.90;44.80;;;;;;6196049;28;20042;-69
2021/03/05 10:23:17;;;;;;;2.28;1.45;;;19.90;44.80;;;;;;6196293;28;20480;-69
2021/03/05 10:26:23;;;;;;;2.22;1.27;;;19.90;44.90;;;;;;6196151;28;20037;-70
2021/03/05 10:29:24;;;;;;;4.60;1.60;;;19.90;44.90;;;;;;6196399;28;20065;-69
2021/03/05 10:32:30;;;;;;;2.75;1.20;;;19.90;44.90;;;;;;6196243;28;20338;-70
2021/03/05 10:35:31;;;;;;;;;;;20.00;45.10;;;;;;6196712;28;20015;-70
2021/03/05 10:38:32;;;;;;;2.95;1.35;;;19.90;45.10;;;;;;6196021;28;19959;-70
2021/03/05 10:41:33;;;;;;;1.40;1.13;;;20.00;45.10;;;;;;6196001;28;20022;-70
2021/03/05 10:44:34;;;;;;;1.73;1.15;;;20.00;45.20;;;;;;6196419;28;20125;-70
2021/03/05 10:47:35;;;;;;;2.55;1.30;;;20.00;45.20;;;;;;6195710;28;20026;-70
2021/03/05 10:50:36;;;;;;;2.65;1.40;;;20.00;45.20;;;;;;6196215;28;20022;-70
2021/03/05 10:53:36;;;;;;;1.38;1.08;;;20.00;45.30;;;;;;6183307;28;20033;-70
2021/03/05 10:56:37;;;;;;;3.00;1.05;;;20.00;45.30;;;;;;6200333;28;20580;-69
2021/03/05 10:59:38;;;;;;;1.13;0.85;;;20.00;45.30;;;;;;6200663;28;20058;-70
2021/03/05 11:02:38;;;;;;;2.38;1.00;;;20.00;45.40;;;;;;6201151;28;20018;-70
2021/03/05 11:05:39;;;;;;;1.52;0.93;;;20.00;45.40;;;;;;6200727;28;20090;-70
2021/03/05 11:08:39;;;;;;;1.35;0.98;;;20.00;45.40;;;;;;6200859;28;20417;-69
2021/03/05 11:11:41;;;;;;;1.67;0.93;;;20.00;45.50;;;;;;6200494;28;20019;-70
2021/03/05 11:14:41;;;;;;;1.13;0.90;;;20.00;45.40;;;;;;6200555;28;20018;-70
2021/03/05 11:17:44;;;;;;;2.63;1.02;;;20.00;45.40;;;;;;6200315;28;20102;-69
2021/03/05 11:20:44;;;;;;;1.20;0.90;;;20.00;45.50;;;;;;6200384;28;20026;-70
2021/03/05 11:23:45;;;;;;;1.20;0.77;;;20.00;45.50;;;;;;6200522;28;20106;-70
2021/03/05 11:26:45;;;;;;;1.20;0.82;;;20.00;45.50;;;;;;6200484;28;20114;-70
2021/03/05 11:29:46;;;;;;;1.20;0.85;;;20.00;45.50;;;;;;6200374;28;20500;-70
2021/03/05 11:32:47;;;;;;;1.52;0.98;;;20.00;45.50;;;;;;6200332;28;20030;-70
2021/03/05 11:35:48;;;;;;;0.80;0.60;;;20.00;45.60;;;;;;6161462;28;20096;-70
2021/03/05 11:38:50;;;;;;;1.20;1.10;;;20.00;45.60;;;;;;6170602;28;20019;-70
2021/03/05 11:41:50;;;;;;;0.90;0.68;;;20.00;45.60;;;;;;6200120;28;20198;-70
2021/03/05 11:44:51;;;;;;;0.77;0.70;;;20.00;45.60;;;;;;6200014;28;20496;-70
2021/03/05 11:47:52;;;;;;;1.17;1.00;;;20.00;45.70;;;;;;6199576;28;20507;-69
2021/03/05 11:50:52;;;;;;;1.48;0.90;;;20.00;45.70;;;;;;6199301;28;20018;-70
2021/03/05 11:53:53;;;;;;;1.40;0.93;;;20.00;45.70;;;;;;6199506;28;20041;-70
2021/03/05 11:56:53;;;;;;;1.02;0.82;;;20.00;45.80;;;;;;6164944;28;20026;-69
2021/03/05 11:59:54;;;;;;;0.80;0.80;;;20.00;45.80;;;;;;6181197;28;20421;-69
2021/03/05 12:02:55;;;;;;;1.27;0.75;;;20.00;45.80;;;;;;6192355;28;20030;-69
2021/03/05 12:05:55;;;;;;;2.45;0.77;;;20.00;45.90;;;;;;6196715;28;20515;-70
2021/03/05 12:08:56;;;;;;;1.17;0.80;;;20.00;45.90;;;;;;6196021;28;20027;-70
2021/03/05 12:11:56;;;;;;;1.17;0.80;;;20.00;45.90;;;;;;6190032;28;20022;-70
2021/03/05 12:14:57;;;;;;;6.53;1.00;;;20.00;45.90;;;;;;6192792;28;20057;-70
2021/03/05 12:17:57;;;;;;;1.25;0.90;;;20.00;45.90;;;;;;6196655;28;20058;-70
2021/03/05 12:20:58;;;;;;;0.77;0.60;;;20.00;45.90;;;;;;6195628;28;20073;-70
2021/03/05 12:23:58;;;;;;;1.45;0.90;;;20.00;46.00;;;;;;6196692;28;20026;-70
2021/03/05 12:26:59;;;;;;;5.43;1.30;;;20.00;45.50;;;;;;6196194;28;20483;-70
2021/03/05 12:30:00;;;;;;;6.88;0.98;;;20.00;45.20;;;;;;6196648;28;20056;-70
2021/03/05 12:33:01;;;;;;;2.08;0.90;;;20.00;44.90;;;;;;6194848;28;20041;-70
2021/03/05 12:36:01;;;;;;;2.42;0.80;;;20.00;45.20;;;;;;6196163;28;20030;-70
2021/03/05 12:39:02;;;;;;;3.72;1.02;;;20.00;45.30;;;;;;6196793;28;20018;-70
2021/03/05 12:42:03;;;;;;;3.42;0.90;;;20.00;45.50;;;;;;6195584;28;20027;-71
2021/03/05 12:45:07;;;;;;;2.85;0.70;;;20.00;45.60;;;;;;6195204;28;20026;-70
2021/03/05 12:48:08;;;;;;;3.40;0.70;;;20.00;45.60;;;;;;6196201;28;20034;-70
2021/03/05 12:51:09;;;;;;;4.65;0.80;;;20.00;45.70;;;;;;6175760;28;20062;-70
2021/03/05 12:54:10;;;;;;;2.13;0.80;;;20.00;45.80;;;;;;6195891;28;20508;-70
2021/03/05 12:57:10;;;;;;;1.00;0.77;;;20.00;45.80;;;;;;6175051;28;20030;-69
2021/03/05 13:00:11;;;;;;;2.42;0.85;;;20.00;45.60;;;;;;6182610;28;20035;-70
2021/03/05 13:03:12;;;;;;;1.98;0.80;;;19.90;45.20;;;;;;6177312;28;20175;-69
2021/03/05 13:06:13;;;;;;;2.95;0.88;;;19.90;43.60;;;;;;6169388;28;20303;-70
2021/03/05 13:09:13;;;;;;;2.72;0.77;;;19.90;40.70;;;;;;6188920;28;20045;-70
2021/03/05 13:12:14;;;;;;;4.35;0.85;;;20.00;39.60;;;;;;6195683;28;20030;-69
2021/03/05 13:15:15;;;;;;;1.58;0.90;;;20.00;40.10;;;;;;6195505;28;20399;-70
2021/03/05 13:18:16;;;;;;;2.25;0.93;;;20.00;40.70;;;;;;6194353;28;20393;-70
2021/03/05 13:21:17;;;;;;;3.85;0.90;;;20.00;41.30;;;;;;6194548;28;20068;-70
2021/03/05 13:24:17;;;;;;;3.03;0.80;;;20.00;41.70;;;;;;6195806;28;20469;-70
2021/03/05 13:27:18;;;;;;;1.38;0.60;;;20.00;42.20;;;;;;6195490;28;20493;-70
2021/03/05 13:30:19;;;;;;;4.85;0.90;;;20.00;42.70;;;;;;6195051;28;20085;-70
2021/03/05 13:33:19;;;;;;;1.17;0.70;;;20.00;43.10;;;;;;6193672;28;20037;-69
2021/03/05 13:36:20;;;;;;;0.93;0.63;;;20.00;43.30;;;;;;6182435;28;20389;-69
2021/03/05 13:39:21;;;;;;;1.13;0.63;;;20.00;43.60;;;;;;6195208;28;20023;-70
2021/03/05 13:42:22;;;;;;;1.05;0.70;;;20.00;43.80;;;;;;6194648;28;20026;-70
2021/03/05 13:45:23;;;;;;;2.13;0.90;;;20.00;43.90;;;;;;6193697;28;20868;-70
2021/03/05 13:48:23;;;;;;;1.67;0.70;;;20.00;44.10;;;;;;6194641;28;20038;-70
2021/03/05 13:51:24;;;;;;;1.45;0.80;;;20.00;44.20;;;;;;6190380;28;20473;-70
2021/03/05 13:54:24;;;;;;;2.35;0.63;;;20.00;44.30;;;;;;6191768;28;20464;-69
2021/03/05 13:57:25;;;;;;;1.38;0.60;;;20.00;44.30;;;;;;6193758;28;20026;-68
2021/03/05 14:00:26;;;;;;;2.03;0.82;;;20.00;44.50;;;;;;6193796;28;20366;-70
2021/03/05 14:03:26;;;;;;;1.63;0.70;;;20.00;44.50;;;;;;6194498;28;20029;-69
2021/03/05 14:06:27;;;;;;;1.52;0.68;;;20.00;44.60;;;;;;6182392;28;20040;-69
2021/03/05 14:09:27;;;;;;;1.65;0.70;;;20.00;44.60;;;;;;6152564;28;20030;-70
2021/03/05 14:12:28;;;;;;;0.73;0.50;;;20.00;44.60;;;;;;6185340;28;20478;-70
2021/03/05 14:15:28;;;;;;;0.85;0.50;;;20.10;44.80;;;;;;6191658;28;20045;-70
2021/03/05 14:18:29;;;;;;;1.05;0.73;;;20.00;44.70;;;;;;6184162;28;20170;-70
2021/03/05 14:21:29;;;;;;;1.30;0.70;;;20.00;44.70;;;;;;6180009;28;20030;-70
2021/03/05 14:24:30;;;;;;;0.70;0.57;;;20.00;44.70;;;;;;6192776;28;20022;-69
2021/03/05 14:27:31;;;;;;;1.27;0.63;;;20.10;44.90;;;;;;6194515;28;20096;-70
2021/03/05 14:30:32;;;;;;;2.92;0.70;;;20.00;44.80;;;;;;6193369;28;20040;-70
2021/03/05 14:33:32;;;;;;;1.80;0.60;;;20.00;44.80;;;;;;6194145;28;20030;-70
2021/03/05 14:36:34;;;;;;;0.47;0.47;;;20.00;44.90;;;;;;6192520;28;20069;-69
2021/03/05 14:39:35;;;;;;;1.02;0.60;;;20.00;44.90;;;;;;6194308;28;20481;-70
2021/03/05 14:42:35;;;;;;;0.75;0.60;;;20.00;45.00;;;;;;6190051;28;20084;-69
2021/03/05 14:45:36;;;;;;;1.17;0.77;;;20.00;45.00;;;;;;6185872;28;20105;-70
2021/03/05 14:48:36;;;;;;;0.65;0.47;;;20.00;45.00;;;;;;6192901;28;20035;-70
2021/03/05 14:51:37;;;;;;;1.08;0.60;;;20.00;45.00;;;;;;6185519;28;20041;-70
2021/03/05 14:54:37;;;;;;;0.55;0.47;;;20.10;45.10;;;;;;6193571;28;20035;-69
2021/03/05 14:57:38;;;;;;;0.75;0.63;;;20.00;45.10;;;;;;6189838;28;20023;-70
2021/03/05 15:00:39;;;;;;;1.00;0.60;;;20.00;45.10;;;;;;6186913;28;20038;-70
2021/03/05 15:03:39;;;;;;;0.77;0.47;;;20.00;45.10;;;;;;6193166;28;20018;-70
2021/03/05 15:06:40;;;;;;;1.27;0.68;;;20.00;45.20;;;;;;6193454;28;20077;-70
2021/03/05 15:09:40;;;;;;;1.25;0.70;;;20.00;45.20;;;;;;6193939;28;20061;-70
2021/03/05 15:12:41;;;;;;;1.13;0.52;;;20.00;45.20;;;;;;6191802;28;20023;-70
2021/03/05 15:15:42;;;;;;;0.85;0.60;;;20.00;45.30;;;;;;6193097;28;20129;-70
2021/03/05 15:18:43;;;;;;;0.60;0.50;;;20.00;45.30;;;;;;6172625;28;20034;-70
2021/03/05 15:21:44;;;;;;;0.73;0.55;;;20.00;45.30;;;;;;6193392;28;20519;-70
2021/03/05 15:24:46;;;;;;;1.70;0.70;;;20.00;45.30;;;;;;6192378;28;20034;-70
2021/03/05 15:27:47;;;;;;;1.50;0.60;;;20.00;45.30;;;;;;6192872;28;20030;-70
2021/03/05 15:30:48;;;;;;;0.50;0.40;;;20.00;45.30;;;;;;6193069;28;20474;-69
2021/03/05 15:33:48;;;;;;;0.50;0.50;;;20.00;45.30;;;;;;6193448;28;20026;-68
2021/03/05 15:36:48;;;;;;;1.52;0.70;;;20.00;45.40;;;;;;6192323;28;20022;-69
2021/03/05 15:39:49;;;;;;;1.00;0.60;;;20.00;45.40;;;;;;6193435;28;20031;-70
2021/03/05 15:42:49;;;;;;;0.65;0.40;;;20.00;45.30;;;;;;6195741;28;20432;-70
2021/03/05 15:45:50;;;;;;;0.95;0.60;;;20.00;45.40;;;;;;6190596;28;20019;-70
2021/03/05 15:48:50;;;;;;;1.85;0.70;;;20.00;45.40;;;;;;6193966;28;20046;-70
2021/03/05 15:51:51;;;;;;;4.97;0.70;;;20.00;45.40;;;;;;6196295;28;20022;-69